sensor_id;sensor_type;location;lat;lon;timestamp;P1;durP1;ratioP1;P2;durP2;ratioP2
41677;SDS011;27364;49.026;8.712;2022-07-01T00:00:37;1.77;;;1.27;;
41677;SDS011;27364;49.026;8.712;2022-07-01T00:03:03;1.95;;;0.90;;
41677;SDS011;27364;49.026;8.712;2022-07-01T00:05:29;1.58;;;1.00;;
41677;SDS011;27364;49.026;8.712;2022-07-01T00:07:55;1.00;;;0.90;;
41677;SDS011;27364;49.026;8.712;2022-07-01T00:10:21;2.03;;;0.90;;
41677;SDS011;27364;49.026;8.712;2022-07-01T00:12:47;1.42;;;0.90;;
41677;SDS011;27364;49.026;8.712;2022-07-01T00:15:13;1.85;;;1.00;;
41677;SDS011;27364;49.026;8.712;2022-07-01T00:17:38;1.27;;;1.00;;
41677;SDS011;27364;49.026;8.712;2022-07-01T00:20:05;1.85;;;1.00;;
41677;SDS011;27364;49.026;8.712;2022-07-01T00:22:41;1.63;;;1.00;;
41677;SDS011;27364;49.026;8.712;2022-07-01T00:25:07;3.58;;;1.40;;
41677;SDS011;27364;49.026;8.712;2022-07-01T00:27:43;2.13;;;1.05;;
41677;SDS011;27364;49.026;8.712;2022-07-01T00:30:09;1.17;;;0.95;;
41677;SDS011;27364;49.026;8.712;2022-07-01T00:32:35;2.25;;;1.10;;
41677;SDS011;27364;49.026;8.712;2022-07-01T00:35:01;1.80;;;0.90;;
41677;SDS011;27364;49.026;8.712;2022-07-01T00:37:27;2.03;;;1.05;;
41677;SDS011;27364;49.026;8.712;2022-07-01T00:39:53;1.52;;;1.00;;
41677;SDS011;27364;49.026;8.712;2022-07-01T00:42:20;1.48;;;0.80;;
41677;SDS011;27364;49.026;8.712;2022-07-01T00:44:47;1.05;;;0.82;;
41677;SDS011;27364;49.026;8.712;2022-07-01T00:47:13;3.53;;;1.20;;
41677;SDS011;27364;49.026;8.712;2022-07-01T00:49:43;2.08;;;1.00;;
41677;SDS011;27364;49.026;8.712;2022-07-01T00:52:13;1.40;;;0.80;;
41677;SDS011;27364;49.026;8.712;2022-07-01T00:54:41;1.77;;;1.08;;
41677;SDS011;27364;49.026;8.712;2022-07-01T00:57:10;1.38;;;0.90;;
41677;SDS011;27364;49.026;8.712;2022-07-01T00:59:37;1.73;;;0.80;;
41677;SDS011;27364;49.026;8.712;2022-07-01T01:02:07;1.27;;;0.90;;
41677;SDS011;27364;49.026;8.712;2022-07-01T01:04:33;1.65;;;0.90;;
41677;SDS011;27364;49.026;8.712;2022-07-01T01:07:00;1.30;;;0.90;;
41677;SDS011;27364;49.026;8.712;2022-07-01T01:09:27;3.13;;;1.10;;
41677;SDS011;27364;49.026;8.712;2022-07-01T01:11:55;2.28;;;1.20;;
41677;SDS011;27364;49.026;8.712;2022-07-01T01:14:20;1.85;;;1.00;;
41677;SDS011;27364;49.026;8.712;2022-07-01T01:16:48;1.63;;;0.85;;
41677;SDS011;27364;49.026;8.712;2022-07-01T01:19:13;1.63;;;1.00;;
41677;SDS011;27364;49.026;8.712;2022-07-01T01:21:39;1.50;;;1.00;;
41677;SDS011;27364;49.026;8.712;2022-07-01T01:24:04;1.25;;;1.00;;
41677;SDS011;27364;49.026;8.712;2022-07-01T01:26:32;1.58;;;0.93;;
41677;SDS011;27364;49.026;8.712;2022-07-01T01:28:58;1.77;;;0.90;;
41677;SDS011;27364;49.026;8.712;2022-07-01T01:31:27;2.45;;;1.00;;
41677;SDS011;27364;49.026;8.712;2022-07-01T01:33:54;2.28;;;1.02;;
41677;SDS011;27364;49.026;8.712;2022-07-01T01:36:21;2.72;;;1.10;;
41677;SDS011;27364;49.026;8.712;2022-07-01T01:38:46;2.10;;;1.10;;
41677;SDS011;27364;49.026;8.712;2022-07-01T01:41:12;2.00;;;1.00;;
41677;SDS011;27364;49.026;8.712;2022-07-01T01:43:37;1.42;;;0.80;;
41677;SDS011;27364;49.026;8.712;2022-07-01T01:46:04;1.27;;;0.90;;
41677;SDS011;27364;49.026;8.712;2022-07-01T01:48:30;1.20;;;0.98;;
41677;SDS011;27364;49.026;8.712;2022-07-01T01:50:57;1.98;;;1.10;;
41677;SDS011;27364;49.026;8.712;2022-07-01T01:53:23;2.17;;;1.10;;
41677;SDS011;27364;49.026;8.712;2022-07-01T01:55:49;2.22;;;1.00;;
41677;SDS011;27364;49.026;8.712;2022-07-01T01:58:17;1.67;;;1.10;;
41677;SDS011;27364;49.026;8.712;2022-07-01T02:00:43;2.65;;;1.20;;
41677;SDS011;27364;49.026;8.712;2022-07-01T02:03:08;1.88;;;1.08;;
41677;SDS011;27364;49.026;8.712;2022-07-01T02:05:35;2.53;;;1.30;;
41677;SDS011;27364;49.026;8.712;2022-07-01T02:08:01;2.13;;;1.10;;
41677;SDS011;27364;49.026;8.712;2022-07-01T02:10:28;1.55;;;1.10;;
41677;SDS011;27364;49.026;8.712;2022-07-01T02:12:53;1.35;;;1.00;;
41677;SDS011;27364;49.026;8.712;2022-07-01T02:15:19;1.40;;;1.08;;
41677;SDS011;27364;49.026;8.712;2022-07-01T02:17:45;1.58;;;1.10;;
41677;SDS011;27364;49.026;8.712;2022-07-01T02:20:10;2.22;;;1.00;;
41677;SDS011;27364;49.026;8.712;2022-07-01T02:22:40;1.35;;;1.00;;
41677;SDS011;27364;49.026;8.712;2022-07-01T02:25:06;2.13;;;1.05;;
41677;SDS011;27364;49.026;8.712;2022-07-01T02:27:32;2.17;;;0.90;;
41677;SDS011;27364;49.026;8.712;2022-07-01T02:29:58;1.92;;;1.10;;
41677;SDS011;27364;49.026;8.712;2022-07-01T02:32:23;2.05;;;1.00;;
41677;SDS011;27364;49.026;8.712;2022-07-01T02:34:49;1.65;;;1.05;;
41677;SDS011;27364;49.026;8.712;2022-07-01T02:37:16;1.10;;;0.90;;
41677;SDS011;27364;49.026;8.712;2022-07-01T02:39:42;3.70;;;1.25;;
41677;SDS011;27364;49.026;8.712;2022-07-01T02:42:09;1.80;;;1.15;;
41677;SDS011;27364;49.026;8.712;2022-07-01T02:44:56;1.70;;;1.20;;
41677;SDS011;27364;49.026;8.712;2022-07-01T02:47:22;2.25;;;1.10;;
41677;SDS011;27364;49.026;8.712;2022-07-01T02:49:48;1.63;;;1.02;;
41677;SDS011;27364;49.026;8.712;2022-07-01T02:52:16;1.73;;;1.10;;
41677;SDS011;27364;49.026;8.712;2022-07-01T02:54:42;1.67;;;1.20;;
41677;SDS011;27364;49.026;8.712;2022-07-01T02:57:08;5.93;;;1.10;;
41677;SDS011;27364;49.026;8.712;2022-07-01T02:59:34;1.77;;;1.10;;
41677;SDS011;27364;49.026;8.712;2022-07-01T03:02:01;1.92;;;1.30;;
41677;SDS011;27364;49.026;8.712;2022-07-01T03:04:27;2.28;;;1.10;;
41677;SDS011;27364;49.026;8.712;2022-07-01T03:06:53;3.35;;;1.30;;
41677;SDS011;27364;49.026;8.712;2022-07-01T03:09:18;2.65;;;1.48;;
41677;SDS011;27364;49.026;8.712;2022-07-01T03:11:45;1.92;;;1.20;;
41677;SDS011;27364;49.026;8.712;2022-07-01T03:14:10;1.60;;;1.20;;
41677;SDS011;27364;49.026;8.712;2022-07-01T03:16:36;3.45;;;1.30;;
41677;SDS011;27364;49.026;8.712;2022-07-01T03:19:01;1.90;;;1.40;;
41677;SDS011;27364;49.026;8.712;2022-07-01T03:21:27;1.88;;;1.20;;
41677;SDS011;27364;49.026;8.712;2022-07-01T03:23:52;2.10;;;1.20;;
41677;SDS011;27364;49.026;8.712;2022-07-01T03:26:18;3.80;;;1.40;;
41677;SDS011;27364;49.026;8.712;2022-07-01T03:28:43;3.13;;;1.25;;
41677;SDS011;27364;49.026;8.712;2022-07-01T03:31:09;2.25;;;1.23;;
41677;SDS011;27364;49.026;8.712;2022-07-01T03:33:35;2.55;;;1.20;;
41677;SDS011;27364;49.026;8.712;2022-07-01T03:36:01;3.42;;;1.40;;
41677;SDS011;27364;49.026;8.712;2022-07-01T03:38:27;2.33;;;1.20;;
41677;SDS011;27364;49.026;8.712;2022-07-01T03:40:53;3.00;;;1.40;;
41677;SDS011;27364;49.026;8.712;2022-07-01T03:43:19;1.73;;;1.20;;
41677;SDS011;27364;49.026;8.712;2022-07-01T03:45:46;2.30;;;1.23;;
41677;SDS011;27364;49.026;8.712;2022-07-01T03:48:12;1.83;;;1.13;;
41677;SDS011;27364;49.026;8.712;2022-07-01T03:50:38;2.22;;;1.30;;
41677;SDS011;27364;49.026;8.712;2022-07-01T03:53:04;1.98;;;1.38;;
41677;SDS011;27364;49.026;8.712;2022-07-01T03:55:48;2.30;;;1.35;;
41677;SDS011;27364;49.026;8.712;2022-07-01T03:58:13;2.22;;;1.33;;
41677;SDS011;27364;49.026;8.712;2022-07-01T04:00:39;4.00;;;1.48;;
41677;SDS011;27364;49.026;8.712;2022-07-01T04:03:06;2.03;;;1.30;;
41677;SDS011;27364;49.026;8.712;2022-07-01T04:05:33;2.63;;;1.58;;
41677;SDS011;27364;49.026;8.712;2022-07-01T04:07:59;3.25;;;1.60;;
41677;SDS011;27364;49.026;8.712;2022-07-01T04:10:26;2.20;;;1.40;;
41677;SDS011;27364;49.026;8.712;2022-07-01T04:12:51;2.63;;;1.60;;
41677;SDS011;27364;49.026;8.712;2022-07-01T04:15:17;2.72;;;1.70;;
41677;SDS011;27364;49.026;8.712;2022-07-01T04:17:43;2.13;;;1.30;;
41677;SDS011;27364;49.026;8.712;2022-07-01T04:20:09;4.97;;;1.67;;
41677;SDS011;27364;49.026;8.712;2022-07-01T04:22:34;3.20;;;1.60;;
41677;SDS011;27364;49.026;8.712;2022-07-01T04:25:03;1.85;;;1.30;;
41677;SDS011;27364;49.026;8.712;2022-07-01T04:27:30;2.20;;;1.50;;
41677;SDS011;27364;49.026;8.712;2022-07-01T04:29:57;2.53;;;1.30;;
41677;SDS011;27364;49.026;8.712;2022-07-01T04:32:24;2.95;;;1.65;;
41677;SDS011;27364;49.026;8.712;2022-07-01T04:34:49;4.57;;;3.05;;
41677;SDS011;27364;49.026;8.712;2022-07-01T04:37:15;2.25;;;1.40;;
41677;SDS011;27364;49.026;8.712;2022-07-01T04:39:41;3.35;;;1.40;;
41677;SDS011;27364;49.026;8.712;2022-07-01T04:42:06;2.80;;;1.80;;
41677;SDS011;27364;49.026;8.712;2022-07-01T04:44:33;4.18;;;1.50;;
41677;SDS011;27364;49.026;8.712;2022-07-01T04:47:01;2.25;;;1.48;;
41677;SDS011;27364;49.026;8.712;2022-07-01T04:49:28;2.28;;;1.60;;
41677;SDS011;27364;49.026;8.712;2022-07-01T04:51:54;2.33;;;1.50;;
41677;SDS011;27364;49.026;8.712;2022-07-01T04:54:21;2.00;;;1.40;;
41677;SDS011;27364;49.026;8.712;2022-07-01T04:56:47;2.30;;;1.40;;
41677;SDS011;27364;49.026;8.712;2022-07-01T04:59:13;1.70;;;1.35;;
41677;SDS011;27364;49.026;8.712;2022-07-01T05:01:46;2.03;;;1.30;;
41677;SDS011;27364;49.026;8.712;2022-07-01T05:04:15;2.60;;;1.30;;
41677;SDS011;27364;49.026;8.712;2022-07-01T05:06:42;2.97;;;1.40;;
41677;SDS011;27364;49.026;8.712;2022-07-01T05:09:07;2.35;;;1.30;;
41677;SDS011;27364;49.026;8.712;2022-07-01T05:11:33;2.40;;;1.30;;
41677;SDS011;27364;49.026;8.712;2022-07-01T05:13:59;3.08;;;1.35;;
41677;SDS011;27364;49.026;8.712;2022-07-01T05:16:26;2.15;;;1.38;;
41677;SDS011;27364;49.026;8.712;2022-07-01T05:18:51;2.00;;;1.25;;
41677;SDS011;27364;49.026;8.712;2022-07-01T05:21:35;2.85;;;1.33;;
41677;SDS011;27364;49.026;8.712;2022-07-01T05:24:19;2.67;;;1.50;;
41677;SDS011;27364;49.026;8.712;2022-07-01T05:26:45;2.90;;;1.50;;
41677;SDS011;27364;49.026;8.712;2022-07-01T05:29:11;2.78;;;1.42;;
41677;SDS011;27364;49.026;8.712;2022-07-01T05:31:37;2.33;;;1.52;;
41677;SDS011;27364;49.026;8.712;2022-07-01T05:34:03;2.67;;;1.52;;
41677;SDS011;27364;49.026;8.712;2022-07-01T05:36:28;2.67;;;1.40;;
41677;SDS011;27364;49.026;8.712;2022-07-01T05:38:54;4.25;;;1.92;;
41677;SDS011;27364;49.026;8.712;2022-07-01T05:41:20;3.83;;;1.77;;
41677;SDS011;27364;49.026;8.712;2022-07-01T05:43:45;4.18;;;1.67;;
41677;SDS011;27364;49.026;8.712;2022-07-01T05:46:11;2.60;;;1.63;;
41677;SDS011;27364;49.026;8.712;2022-07-01T05:48:37;3.85;;;1.80;;
41677;SDS011;27364;49.026;8.712;2022-07-01T05:51:03;3.80;;;1.88;;
41677;SDS011;27364;49.026;8.712;2022-07-01T05:53:28;4.57;;;1.73;;
41677;SDS011;27364;49.026;8.712;2022-07-01T05:55:54;2.90;;;1.75;;
41677;SDS011;27364;49.026;8.712;2022-07-01T05:58:20;3.28;;;1.58;;
41677;SDS011;27364;49.026;8.712;2022-07-01T06:00:45;2.90;;;1.80;;
41677;SDS011;27364;49.026;8.712;2022-07-01T06:03:12;4.40;;;2.00;;
41677;SDS011;27364;49.026;8.712;2022-07-01T06:05:39;3.08;;;1.80;;
41677;SDS011;27364;49.026;8.712;2022-07-01T06:08:05;4.07;;;2.10;;
41677;SDS011;27364;49.026;8.712;2022-07-01T06:10:32;3.83;;;1.98;;
41677;SDS011;27364;49.026;8.712;2022-07-01T06:12:58;3.60;;;2.00;;
41677;SDS011;27364;49.026;8.712;2022-07-01T06:15:24;3.03;;;2.10;;
41677;SDS011;27364;49.026;8.712;2022-07-01T06:17:49;4.32;;;2.03;;
41677;SDS011;27364;49.026;8.712;2022-07-01T06:20:15;3.83;;;2.17;;
41677;SDS011;27364;49.026;8.712;2022-07-01T06:22:41;3.15;;;2.05;;
41677;SDS011;27364;49.026;8.712;2022-07-01T06:25:07;3.85;;;2.40;;
41677;SDS011;27364;49.026;8.712;2022-07-01T06:27:37;3.05;;;2.22;;
41677;SDS011;27364;49.026;8.712;2022-07-01T06:30:06;3.80;;;2.33;;
41677;SDS011;27364;49.026;8.712;2022-07-01T06:32:32;3.35;;;2.35;;
41677;SDS011;27364;49.026;8.712;2022-07-01T06:34:58;3.40;;;2.45;;
41677;SDS011;27364;49.026;8.712;2022-07-01T06:37:23;4.13;;;2.65;;
41677;SDS011;27364;49.026;8.712;2022-07-01T06:39:49;5.18;;;3.10;;
41677;SDS011;27364;49.026;8.712;2022-07-01T06:42:15;4.05;;;2.63;;
41677;SDS011;27364;49.026;8.712;2022-07-01T06:44:40;4.03;;;2.50;;
41677;SDS011;27364;49.026;8.712;2022-07-01T06:47:07;3.75;;;2.50;;
41677;SDS011;27364;49.026;8.712;2022-07-01T06:49:33;3.90;;;2.60;;
41677;SDS011;27364;49.026;8.712;2022-07-01T06:51:58;4.15;;;2.55;;
41677;SDS011;27364;49.026;8.712;2022-07-01T06:54:24;4.10;;;2.60;;
41677;SDS011;27364;49.026;8.712;2022-07-01T06:56:50;3.72;;;2.70;;
41677;SDS011;27364;49.026;8.712;2022-07-01T06:59:17;4.43;;;2.88;;
41677;SDS011;27364;49.026;8.712;2022-07-01T07:01:43;4.65;;;2.70;;
41677;SDS011;27364;49.026;8.712;2022-07-01T07:04:08;4.20;;;2.70;;
41677;SDS011;27364;49.026;8.712;2022-07-01T07:06:34;3.92;;;2.67;;
41677;SDS011;27364;49.026;8.712;2022-07-01T07:09:00;5.47;;;3.00;;
41677;SDS011;27364;49.026;8.712;2022-07-01T07:11:27;4.32;;;2.83;;
41677;SDS011;27364;49.026;8.712;2022-07-01T07:13:53;4.63;;;3.03;;
41677;SDS011;27364;49.026;8.712;2022-07-01T07:16:18;4.20;;;3.15;;
41677;SDS011;27364;49.026;8.712;2022-07-01T07:18:47;5.85;;;3.05;;
41677;SDS011;27364;49.026;8.712;2022-07-01T07:21:14;5.57;;;3.10;;
41677;SDS011;27364;49.026;8.712;2022-07-01T07:23:39;4.88;;;2.97;;
41677;SDS011;27364;49.026;8.712;2022-07-01T07:26:06;5.45;;;3.45;;
41677;SDS011;27364;49.026;8.712;2022-07-01T07:28:31;5.35;;;3.50;;
41677;SDS011;27364;49.026;8.712;2022-07-01T07:30:57;4.65;;;3.58;;
41677;SDS011;27364;49.026;8.712;2022-07-01T07:33:22;6.93;;;3.35;;
41677;SDS011;27364;49.026;8.712;2022-07-01T07:35:48;5.18;;;3.60;;
41677;SDS011;27364;49.026;8.712;2022-07-01T07:38:14;5.55;;;4.13;;
41677;SDS011;27364;49.026;8.712;2022-07-01T07:40:40;5.18;;;3.60;;
41677;SDS011;27364;49.026;8.712;2022-07-01T07:43:06;5.10;;;3.40;;
41677;SDS011;27364;49.026;8.712;2022-07-01T07:45:34;5.80;;;3.80;;
41677;SDS011;27364;49.026;8.712;2022-07-01T07:48:00;5.25;;;3.70;;
41677;SDS011;27364;49.026;8.712;2022-07-01T07:50:26;6.22;;;3.92;;
41677;SDS011;27364;49.026;8.712;2022-07-01T07:52:53;6.03;;;3.70;;
41677;SDS011;27364;49.026;8.712;2022-07-01T07:55:19;5.13;;;3.20;;
41677;SDS011;27364;49.026;8.712;2022-07-01T07:57:44;5.32;;;3.45;;
41677;SDS011;27364;49.026;8.712;2022-07-01T08:00:11;6.30;;;3.88;;
41677;SDS011;27364;49.026;8.712;2022-07-01T08:02:37;5.18;;;3.15;;
41677;SDS011;27364;49.026;8.712;2022-07-01T08:05:04;4.88;;;3.42;;
41677;SDS011;27364;49.026;8.712;2022-07-01T08:07:30;4.30;;;3.20;;
41677;SDS011;27364;49.026;8.712;2022-07-01T08:10:00;5.50;;;3.25;;
41677;SDS011;27364;49.026;8.712;2022-07-01T08:12:26;5.60;;;3.67;;
41677;SDS011;27364;49.026;8.712;2022-07-01T08:14:51;3.90;;;2.95;;
41677;SDS011;27364;49.026;8.712;2022-07-01T08:17:17;5.05;;;3.60;;
41677;SDS011;27364;49.026;8.712;2022-07-01T08:19:43;6.15;;;3.60;;
41677;SDS011;27364;49.026;8.712;2022-07-01T08:22:08;4.85;;;3.40;;
41677;SDS011;27364;49.026;8.712;2022-07-01T08:24:34;4.57;;;2.83;;
41677;SDS011;27364;49.026;8.712;2022-07-01T08:27:00;5.20;;;3.50;;
41677;SDS011;27364;49.026;8.712;2022-07-01T08:29:25;4.95;;;3.33;;
41677;SDS011;27364;49.026;8.712;2022-07-01T08:31:51;3.90;;;2.90;;
41677;SDS011;27364;49.026;8.712;2022-07-01T08:34:16;3.28;;;2.58;;
41677;SDS011;27364;49.026;8.712;2022-07-01T08:36:42;3.83;;;2.55;;
41677;SDS011;27364;49.026;8.712;2022-07-01T08:39:08;3.50;;;2.60;;
41677;SDS011;27364;49.026;8.712;2022-07-01T08:41:35;3.90;;;2.70;;
41677;SDS011;27364;49.026;8.712;2022-07-01T08:44:02;4.10;;;2.50;;
41677;SDS011;27364;49.026;8.712;2022-07-01T08:46:30;5.40;;;2.78;;
41677;SDS011;27364;49.026;8.712;2022-07-01T08:48:57;5.80;;;2.50;;
41677;SDS011;27364;49.026;8.712;2022-07-01T08:51:23;4.78;;;2.75;;
41677;SDS011;27364;49.026;8.712;2022-07-01T08:53:49;5.07;;;2.50;;
41677;SDS011;27364;49.026;8.712;2022-07-01T08:56:15;3.60;;;2.50;;
41677;SDS011;27364;49.026;8.712;2022-07-01T08:58:59;4.63;;;2.83;;
41677;SDS011;27364;49.026;8.712;2022-07-01T09:01:25;5.03;;;2.60;;
41677;SDS011;27364;49.026;8.712;2022-07-01T09:03:51;5.93;;;2.80;;
41677;SDS011;27364;49.026;8.712;2022-07-01T09:06:22;3.70;;;2.30;;
41677;SDS011;27364;49.026;8.712;2022-07-01T09:08:51;4.35;;;2.85;;
41677;SDS011;27364;49.026;8.712;2022-07-01T09:11:18;6.15;;;2.65;;
41677;SDS011;27364;49.026;8.712;2022-07-01T09:13:45;4.65;;;2.53;;
41677;SDS011;27364;49.026;8.712;2022-07-01T09:19:09;4.18;;;2.20;;
41677;SDS011;27364;49.026;8.712;2022-07-01T09:21:36;3.47;;;2.30;;
41677;SDS011;27364;49.026;8.712;2022-07-01T09:24:03;2.85;;;2.00;;
41677;SDS011;27364;49.026;8.712;2022-07-01T09:26:52;3.93;;;2.20;;
41677;SDS011;27364;49.026;8.712;2022-07-01T09:32:09;3.88;;;1.98;;
41677;SDS011;27364;49.026;8.712;2022-07-01T09:37:10;4.55;;;2.40;;
41677;SDS011;27364;49.026;8.712;2022-07-01T09:39:47;4.70;;;2.20;;
41677;SDS011;27364;49.026;8.712;2022-07-01T09:42:17;3.92;;;2.20;;
41677;SDS011;27364;49.026;8.712;2022-07-01T09:44:57;3.97;;;2.25;;
41677;SDS011;27364;49.026;8.712;2022-07-01T09:47:31;7.83;;;2.33;;
41677;SDS011;27364;49.026;8.712;2022-07-01T09:49:59;4.40;;;2.22;;
41677;SDS011;27364;49.026;8.712;2022-07-01T09:52:25;3.15;;;2.08;;
41677;SDS011;27364;49.026;8.712;2022-07-01T09:54:51;4.32;;;2.15;;
41677;SDS011;27364;49.026;8.712;2022-07-01T09:57:17;3.15;;;2.13;;
41677;SDS011;27364;49.026;8.712;2022-07-01T09:59:47;3.30;;;2.20;;
41677;SDS011;27364;49.026;8.712;2022-07-01T10:02:14;4.63;;;2.15;;
41677;SDS011;27364;49.026;8.712;2022-07-01T10:04:46;7.70;;;2.17;;
41677;SDS011;27364;49.026;8.712;2022-07-01T10:10:01;3.55;;;2.40;;
41677;SDS011;27364;49.026;8.712;2022-07-01T10:12:41;3.13;;;2.30;;
41677;SDS011;27364;49.026;8.712;2022-07-01T10:15:10;4.53;;;2.45;;
41677;SDS011;27364;49.026;8.712;2022-07-01T10:17:47;3.63;;;2.47;;
41677;SDS011;27364;49.026;8.712;2022-07-01T10:22:41;3.35;;;2.53;;
41677;SDS011;27364;49.026;8.712;2022-07-01T10:28:24;4.15;;;2.63;;
41677;SDS011;27364;49.026;8.712;2022-07-01T10:33:46;3.72;;;2.30;;
41677;SDS011;27364;49.026;8.712;2022-07-01T10:39:23;4.05;;;2.90;;
41677;SDS011;27364;49.026;8.712;2022-07-01T10:41:36;4.05;;;2.20;;
41677;SDS011;27364;49.026;8.712;2022-07-01T10:44:07;4.10;;;2.35;;
41677;SDS011;27364;49.026;8.712;2022-07-01T10:49:08;3.88;;;2.25;;
41677;SDS011;27364;49.026;8.712;2022-07-01T10:51:52;3.25;;;2.03;;
41677;SDS011;27364;49.026;8.712;2022-07-01T10:59:52;3.17;;;1.73;;
41677;SDS011;27364;49.026;8.712;2022-07-01T11:02:31;3.22;;;1.80;;
41677;SDS011;27364;49.026;8.712;2022-07-01T11:05:04;3.47;;;2.10;;
41677;SDS011;27364;49.026;8.712;2022-07-01T11:07:35;2.80;;;1.88;;
41677;SDS011;27364;49.026;8.712;2022-07-01T11:12:29;3.08;;;1.60;;
41677;SDS011;27364;49.026;8.712;2022-07-01T11:14:56;2.22;;;1.40;;
41677;SDS011;27364;49.026;8.712;2022-07-01T11:17:24;1.98;;;1.30;;
41677;SDS011;27364;49.026;8.712;2022-07-01T11:19:54;2.72;;;1.58;;
41677;SDS011;27364;49.026;8.712;2022-07-01T11:22:27;2.10;;;1.40;;
41677;SDS011;27364;49.026;8.712;2022-07-01T11:24:56;1.70;;;1.30;;
41677;SDS011;27364;49.026;8.712;2022-07-01T11:27:26;3.22;;;1.67;;
41677;SDS011;27364;49.026;8.712;2022-07-01T11:29:56;4.47;;;1.45;;
41677;SDS011;27364;49.026;8.712;2022-07-01T11:34:57;3.33;;;1.90;;
41677;SDS011;27364;49.026;8.712;2022-07-01T11:37:27;2.33;;;1.30;;
41677;SDS011;27364;49.026;8.712;2022-07-01T11:40:13;2.65;;;1.40;;
41677;SDS011;27364;49.026;8.712;2022-07-01T11:42:40;3.72;;;1.33;;
41677;SDS011;27364;49.026;8.712;2022-07-01T11:45:07;3.35;;;1.30;;
41677;SDS011;27364;49.026;8.712;2022-07-01T11:47:33;3.78;;;1.67;;
41677;SDS011;27364;49.026;8.712;2022-07-01T11:49:59;1.90;;;1.20;;
41677;SDS011;27364;49.026;8.712;2022-07-01T11:52:26;2.22;;;1.30;;
41677;SDS011;27364;49.026;8.712;2022-07-01T11:54:56;2.33;;;1.30;;
41677;SDS011;27364;49.026;8.712;2022-07-01T11:57:25;2.38;;;1.40;;
41677;SDS011;27364;49.026;8.712;2022-07-01T11:59:54;2.58;;;1.60;;
41677;SDS011;27364;49.026;8.712;2022-07-01T12:02:22;1.40;;;1.08;;
41677;SDS011;27364;49.026;8.712;2022-07-01T12:04:49;3.20;;;1.30;;
41677;SDS011;27364;49.026;8.712;2022-07-01T12:07:19;3.63;;;1.42;;
41677;SDS011;27364;49.026;8.712;2022-07-01T12:09:47;1.38;;;1.10;;
41677;SDS011;27364;49.026;8.712;2022-07-01T12:12:21;2.20;;;1.10;;
41677;SDS011;27364;49.026;8.712;2022-07-01T12:14:54;1.52;;;1.10;;
41677;SDS011;27364;49.026;8.712;2022-07-01T12:17:21;1.95;;;1.13;;
41677;SDS011;27364;49.026;8.712;2022-07-01T12:19:48;2.22;;;1.10;;
41677;SDS011;27364;49.026;8.712;2022-07-01T12:22:15;1.20;;;1.00;;
41677;SDS011;27364;49.026;8.712;2022-07-01T12:24:43;2.88;;;1.20;;
41677;SDS011;27364;49.026;8.712;2022-07-01T12:27:08;2.72;;;1.38;;
41677;SDS011;27364;49.026;8.712;2022-07-01T12:32:15;1.48;;;1.00;;
41677;SDS011;27364;49.026;8.712;2022-07-01T12:37:16;1.95;;;1.10;;
41677;SDS011;27364;49.026;8.712;2022-07-01T12:39:51;4.43;;;2.97;;
41677;SDS011;27364;49.026;8.712;2022-07-01T12:45:01;1.65;;;1.20;;
41677;SDS011;27364;49.026;8.712;2022-07-01T12:47:29;1.90;;;1.05;;
41677;SDS011;27364;49.026;8.712;2022-07-01T12:52:39;2.67;;;1.30;;
41677;SDS011;27364;49.026;8.712;2022-07-01T12:55:17;2.30;;;1.20;;
41677;SDS011;27364;49.026;8.712;2022-07-01T12:57:48;1.17;;;0.98;;
41677;SDS011;27364;49.026;8.712;2022-07-01T13:00:22;1.90;;;1.00;;
41677;SDS011;27364;49.026;8.712;2022-07-01T13:02:51;2.28;;;1.00;;
41677;SDS011;27364;49.026;8.712;2022-07-01T13:05:18;1.85;;;1.13;;
41677;SDS011;27364;49.026;8.712;2022-07-01T13:07:45;1.73;;;1.00;;
41677;SDS011;27364;49.026;8.712;2022-07-01T13:10:13;1.77;;;1.08;;
41677;SDS011;27364;49.026;8.712;2022-07-01T13:12:40;1.17;;;1.00;;
41677;SDS011;27364;49.026;8.712;2022-07-01T13:15:06;1.60;;;1.00;;
41677;SDS011;27364;49.026;8.712;2022-07-01T13:20:02;1.85;;;1.08;;
41677;SDS011;27364;49.026;8.712;2022-07-01T13:22:30;2.80;;;1.27;;
41677;SDS011;27364;49.026;8.712;2022-07-01T13:24:55;2.05;;;1.10;;
41677;SDS011;27364;49.026;8.712;2022-07-01T13:27:21;1.85;;;1.00;;
41677;SDS011;27364;49.026;8.712;2022-07-01T13:29:48;1.65;;;1.05;;
41677;SDS011;27364;49.026;8.712;2022-07-01T13:32:14;1.92;;;1.00;;
41677;SDS011;27364;49.026;8.712;2022-07-01T13:34:40;1.70;;;1.05;;
41677;SDS011;27364;49.026;8.712;2022-07-01T13:37:06;2.45;;;1.10;;
41677;SDS011;27364;49.026;8.712;2022-07-01T13:39:31;1.98;;;1.20;;
41677;SDS011;27364;49.026;8.712;2022-07-01T13:41:57;2.45;;;1.20;;
41677;SDS011;27364;49.026;8.712;2022-07-01T13:44:23;1.23;;;0.90;;
41677;SDS011;27364;49.026;8.712;2022-07-01T13:46:48;1.20;;;0.90;;
41677;SDS011;27364;49.026;8.712;2022-07-01T13:49:14;1.88;;;1.10;;
41677;SDS011;27364;49.026;8.712;2022-07-01T13:51:40;1.67;;;0.85;;
41677;SDS011;27364;49.026;8.712;2022-07-01T13:54:06;2.67;;;1.48;;
41677;SDS011;27364;49.026;8.712;2022-07-01T13:56:31;1.33;;;1.00;;
41677;SDS011;27364;49.026;8.712;2022-07-01T13:58:57;1.52;;;1.00;;
41677;SDS011;27364;49.026;8.712;2022-07-01T14:01:23;1.65;;;0.90;;
41677;SDS011;27364;49.026;8.712;2022-07-01T14:03:49;1.70;;;1.17;;
41677;SDS011;27364;49.026;8.712;2022-07-01T14:06:16;1.33;;;1.00;;
41677;SDS011;27364;49.026;8.712;2022-07-01T14:08:43;1.77;;;1.00;;
41677;SDS011;27364;49.026;8.712;2022-07-01T14:11:08;0.98;;;0.88;;
41677;SDS011;27364;49.026;8.712;2022-07-01T14:13:34;2.00;;;1.10;;
41677;SDS011;27364;49.026;8.712;2022-07-01T14:16:00;2.15;;;1.00;;
41677;SDS011;27364;49.026;8.712;2022-07-01T14:18:26;2.30;;;0.90;;
41677;SDS011;27364;49.026;8.712;2022-07-01T14:20:53;1.80;;;1.10;;
41677;SDS011;27364;49.026;8.712;2022-07-01T14:23:19;2.10;;;1.00;;
41677;SDS011;27364;49.026;8.712;2022-07-01T14:25:44;0.70;;;0.70;;
41677;SDS011;27364;49.026;8.712;2022-07-01T14:28:10;1.15;;;0.85;;
41677;SDS011;27364;49.026;8.712;2022-07-01T14:30:37;1.40;;;1.00;;
41677;SDS011;27364;49.026;8.712;2022-07-01T14:33:03;1.90;;;0.88;;
41677;SDS011;27364;49.026;8.712;2022-07-01T14:35:29;1.02;;;0.90;;
41677;SDS011;27364;49.026;8.712;2022-07-01T14:37:54;1.38;;;0.90;;
41677;SDS011;27364;49.026;8.712;2022-07-01T14:40:20;2.13;;;0.95;;
41677;SDS011;27364;49.026;8.712;2022-07-01T14:42:46;1.30;;;0.90;;
41677;SDS011;27364;49.026;8.712;2022-07-01T14:45:11;2.85;;;1.52;;
41677;SDS011;27364;49.026;8.712;2022-07-01T14:47:39;1.55;;;0.88;;
41677;SDS011;27364;49.026;8.712;2022-07-01T14:50:05;1.23;;;0.80;;
41677;SDS011;27364;49.026;8.712;2022-07-01T14:52:31;2.20;;;1.20;;
41677;SDS011;27364;49.026;8.712;2022-07-01T14:54:57;1.38;;;1.00;;
41677;SDS011;27364;49.026;8.712;2022-07-01T14:57:22;3.22;;;1.10;;
41677;SDS011;27364;49.026;8.712;2022-07-01T14:59:48;2.75;;;1.33;;
41677;SDS011;27364;49.026;8.712;2022-07-01T15:02:14;1.25;;;0.90;;
41677;SDS011;27364;49.026;8.712;2022-07-01T15:04:40;4.03;;;1.25;;
41677;SDS011;27364;49.026;8.712;2022-07-01T15:07:06;5.40;;;1.10;;
41677;SDS011;27364;49.026;8.712;2022-07-01T15:09:31;1.38;;;0.98;;
41677;SDS011;27364;49.026;8.712;2022-07-01T15:11:57;1.95;;;1.08;;
41677;SDS011;27364;49.026;8.712;2022-07-01T15:14:23;1.55;;;0.98;;
41677;SDS011;27364;49.026;8.712;2022-07-01T15:16:48;3.15;;;1.27;;
41677;SDS011;27364;49.026;8.712;2022-07-01T15:19:14;1.48;;;1.00;;
41677;SDS011;27364;49.026;8.712;2022-07-01T15:21:40;1.88;;;0.90;;
41677;SDS011;27364;49.026;8.712;2022-07-01T15:24:06;2.10;;;1.23;;
41677;SDS011;27364;49.026;8.712;2022-07-01T15:26:32;1.40;;;0.90;;
41677;SDS011;27364;49.026;8.712;2022-07-01T15:28:58;2.58;;;1.00;;
41677;SDS011;27364;49.026;8.712;2022-07-01T15:31:25;1.27;;;1.00;;
41677;SDS011;27364;49.026;8.712;2022-07-01T15:33:53;2.42;;;1.25;;
41677;SDS011;27364;49.026;8.712;2022-07-01T15:36:19;2.47;;;1.00;;